• Join FlightAware (Why Join?)
  • Login
  • US Flag 
07:21AM EDT


 

Airport Tracker/Info


-or-


 

Live Flight TrackerFlight Track Log ✈ AWE3912 ✈ 05-Aug-2014 ✈ KPHL - CYUL

Flight Track Log - Related Links

Times and Time Zones

All times are in EDT time to prevent confusion due to time zone crossing. See the AWE3912 flight status page for this flight to view local times or setup timezone preferences in your user account.

Time Position Orientation Groundspeed Altitude Reporting Facility
EDT Latitude Longitude Course Direction KTS MPH feet Rate Location/Type
11:48AM 39.8667 -75.2833 37° Northeast 166 191 700  Level Philadelphia TRACON
11:49AM 39.8333 -75.3167 218° Southwest 197 227 1,900 2,100 Climbing Philadelphia TRACON
11:50AM 39.7833 -75.3667 218° Southwest 224 258 4,300 1,920 Climbing Philadelphia TRACON
11:51AM 39.7167 -75.3500 169° South 285 328 5,800 1,920 Climbing Philadelphia TRACON
11:53AM 39.8237 -74.6597 37° Northeast  Level FlightAware Approximate
11:53AM 39.7328 -75.1278 85° East 294 338 10,500  Level New York Center
11:54AM 39.8996 -74.5838 37° Northeast  Level FlightAware Approximate
11:54AM 39.7475 -75.0097 81° East 315 362 11,600  Level New York Center
11:55AM 39.7689 -74.8789 78° East 354 407 12,100 1,140 Climbing New York Center
11:56AM 39.7925 -74.7397 78° East 371 427 13,900 1,680 Climbing New York Center
11:57AM 39.8622 -74.6464 46° Northeast 344 396 15,500 1,440 Climbing New York Center
11:58AM 39.9464 -74.5642 37° Northeast 355 409 16,800 1,320 Climbing New York Center
11:59AM 40.0300 -74.4847 36° Northeast 360 414 18,200 1,320 Climbing New York Center
12:00PM 40.1161 -74.3997 37° Northeast 372 428 19,500 1,080 Climbing New York Center
12:01PM 40.2022 -74.3147 37° Northeast 378 435 20,400 900 Climbing New York Center
12:02PM 40.2922 -74.2267 37° Northeast 384 442 21,400 780 Climbing New York Center
12:03PM 40.3903 -74.1528 30° Northeast 396 456 22,000 540 Climbing New York Center
12:04PM 40.4964 -74.0869 25° Northeast 406 467 22,500 480 Climbing New York Center
12:07PM 40.7717 -73.9117 26° Northeast 443 510 23,800 480 Climbing Boston Center
12:08PM 40.8836 -73.8397 26° Northeast 445 512 24,300 480 Climbing Boston Center
12:09PM 40.9972 -73.7667 26° Northeast 448 516 24,800 480 Climbing Boston Center
12:10PM 41.1119 -73.6906 27° Northeast 453 521 25,300 480 Climbing Boston Center
12:11PM 41.2264 -73.6164 26° Northeast 453 521 25,800 300 Climbing Boston Center
12:12PM 41.3469 -73.5708 16° North 455 524 26,000 60 Climbing Boston Center
12:13PM 41.4736 -73.5544 North 455 524 26,000  Level Boston Center
12:14PM 41.6072 -73.5372 North 455 524 26,000  Level Boston Center
12:15PM 41.7342 -73.5200 North 455 524 26,000  Level Boston Center
12:16PM 41.8611 -73.5033 North 455 524 26,000  Level Boston Center
12:17PM 42.0161 -73.4817 North 457 526 26,000  Level Boston Center
12:18PM 42.1333 -73.4647 North 458 527 26,000  Level Boston Center
12:19PM 42.2606 -73.4475 North 458 527 26,000 240 Level Boston Center
12:20PM 42.4031 -73.4286 North 458 527 26,600 420 Climbing Boston Center
12:21PM 42.5311 -73.4097 North 458 527 27,000 180 Climbing Boston Center
12:22PM 42.6597 -73.3678 13° North 461 531 27,000  Level Boston Center
12:23PM 42.7878 -73.3167 16° North 468 539 27,000  Level Boston Center
12:24PM 42.9161 -73.2675 16° North 470 541 27,000  Level Boston Center
12:25PM 43.0450 -73.2183 16° North 471 542 27,000  Level Boston Center
12:26PM 43.1744 -73.1697 15° North 474 545 27,000  Level Boston Center
12:27PM 43.3047 -73.1250 14° North 476 548 27,000  Level Boston Center
12:28PM 43.4425 -73.0733 15° North 477 549 27,000  Level Boston Center
12:29PM 43.5706 -73.0219 16° North 477 549 27,000  Level Boston Center
12:30PM 43.7211 -72.9786 12° North 479 551 27,000 -60 Level Boston Center
12:32PM 43.8433 -73.0506 337° Northwest 456 525 26,900 -960 Descending Boston Center
12:33PM 43.9608 -73.1189 337° Northwest 455 524 25,000 -1,800 Descending Boston Center
12:34PM 44.0767 -73.1822 339° North 452 520 23,200 -1,740 Descending Boston Center
12:35PM 44.1881 -73.2436 338° Northwest 434 499 21,500 -1,560 Descending Boston Center
12:36PM 44.2969 -73.3042 338° Northwest 424 488 20,000 -1,200 Descending Boston Center
12:37PM 44.4108 -73.3681 338° Northwest 397 457 19,000 -780 Descending Boston Center
12:38PM 44.4961 -73.4167 338° Northwest 378 435 18,500 -540 Descending Boston Center
12:39PM 44.6100 -73.4792 339° North 365 420 17,900 -540 Descending Boston Center
12:40PM 44.7042 -73.5314 338° Northwest 364 419 17,400 -840 Descending Boston Center
12:41PM 44.7983 -73.5772 341° North 360 414 16,300 -1,200 Descending Boston Center
12:42PM 44.8931 -73.6075 347° North 352 405 14,900 -1,560 Descending Boston Center
12:42PM 44.9500 -73.6000 North 360 414 13,800 -1,680 Descending Montreal Center
12:43PM 45.0500 -73.6000 360° North 360 414 12,300 -1,620 Descending Montreal Center
12:44PM 45.1500 -73.6000 360° North 330 380 10,600 -1,500 Descending Montreal Center
12:45PM 45.2333 -73.5833 North 300 345 9,300 -1,440 Descending Montreal Center
12:46PM 45.3167 -73.5833 360° North 290 334 7,800 -1,380 Descending Montreal Center
12:47PM 45.3833 -73.5833 360° North 280 322 6,600 -1,140 Descending Montreal Center
12:48PM 45.4500 -73.5333 28° Northeast 250 288 5,600 -1,200 Descending Montreal Center
12:49PM 45.5000 -73.4833 35° Northeast 250 288 4,200 -840 Descending Montreal Center
12:50PM 45.5667 -73.4333 28° Northeast 230 265 4,000 -300 Descending Montreal Center
12:51PM 45.6167 -73.4833 325° Northwest 200 230 3,700 -480 Descending Montreal Center
12:52PM 45.6000 -73.5167 234° Southwest 180 207 3,100 -540 Descending Montreal Center
12:53PM 45.5667 -73.5667 226° Southwest 170 196 2,700 -720 Descending Montreal Center
12:54PM 45.5333 -73.6167 226° Southwest 170 196 1,700 -900 Descending Montreal Center
12:55PM 45.5000 -73.6667 226° Southwest 140 161 1,000 -780 Descending Montreal Center
12:56PM 45.4667 -73.7000 215° Southwest 140 161 200 -480 Descending Montreal Center
12:57PM 45.4500 -73.7167 215° Southwest 70 81 100 -120 Descending Montreal Center